Time;durP1;ratioP1;P1;durP2;ratioP2;P2;SDS_P1;SDS_P2;PMS_P1;PMS_P2;Temp;Humidity;BMP_temperature;BMP_pressure;BME280_temperature;BME280_humidity;BME280_pressure;Samples;Min_cycle;Max_cycle;Signal;HPM_P1;HPM_P2
2023/04/07 00:00:09;;;;;;;11.73;4.30;;;;;;;7.19;96.88;101741.59;6100661;19;20346;-73
2023/04/07 00:02:14;;;;;;;13.98;3.97;;;;;;;7.15;96.83;101748.56;6100616;19;20006;-74
2023/04/07 00:04:19;;;;;;;8.13;3.38;;;;;;;7.11;96.76;101743.38;6097263;19;20034;-73
2023/04/07 00:06:28;;;;;;;12.05;4.45;;;;;;;7.13;97.07;101752.09;6102969;19;20006;-74
2023/04/07 00:08:32;;;;;;;8.65;3.63;;;;;;;7.10;97.12;101746.91;6100436;19;20737;-74
2023/04/07 00:10:37;;;;;;;10.45;3.75;;;;;;;7.08;96.97;101749.53;6100560;19;20475;-74
2023/04/07 00:12:44;;;;;;;11.85;3.53;;;;;;;7.08;97.03;101752.13;6102240;19;20034;-74
2023/04/07 00:14:48;;;;;;;15.98;4.78;;;;;;;7.11;96.86;101746.91;6103396;19;20005;-74
2023/04/07 00:16:56;;;;;;;11.38;3.90;;;;;;;7.10;97.04;101749.50;6103254;19;20011;-75
2023/04/07 00:19:03;;;;;;;16.98;4.50;;;;;;;7.09;97.21;101747.78;6099014;19;20013;-74
2023/04/07 00:21:08;;;;;;;8.15;3.67;;;;;;;7.13;97.28;101754.69;6103124;19;20448;-73
2023/04/07 00:23:16;;;;;;;9.73;3.88;;;;;;;7.10;97.34;101753.00;6094816;19;20011;-74
2023/04/07 00:25:26;;;;;;;14.75;3.65;;;;;;;7.11;97.12;101752.13;6105392;19;20078;-74
2023/04/07 00:27:30;;;;;;;13.98;3.97;;;;;;;7.08;97.21;101741.69;6102628;19;20278;-74
2023/04/07 00:29:36;;;;;;;12.90;3.97;;;;;;;7.07;97.10;101745.19;6101432;19;20361;-75
2023/04/07 00:31:41;;;;;;;19.35;3.83;;;;;;;7.03;97.38;101746.13;6104579;19;20013;-75
2023/04/07 00:33:50;;;;;;;12.60;3.78;;;;;;;6.94;97.37;101754.91;6104258;19;19999;-74
2023/04/07 00:35:59;;;;;;;14.45;3.90;;;;;;;6.86;97.37;101756.75;6107982;19;20017;-75
2023/04/07 00:38:04;;;;;;;12.95;4.40;;;;;;;6.83;97.42;101756.78;6108851;19;20007;-75
2023/04/07 00:40:13;;;;;;;9.65;2.97;;;;;;;6.74;97.56;101756.84;6109764;19;20014;-74
2023/04/07 00:42:18;;;;;;;9.50;3.95;;;;;;;6.66;97.21;101761.28;6111588;19;20006;-75
2023/04/07 00:44:23;;;;;;;10.57;3.50;;;;;;;6.63;97.55;101759.56;6115915;19;20010;-75
2023/04/07 00:46:28;;;;;;;9.38;2.97;;;;;;;6.57;97.66;101759.63;6114581;19;20010;-75
2023/04/07 00:48:33;;;;;;;8.85;3.30;;;;;;;6.52;97.83;101762.28;6118793;19;20549;-76
2023/04/07 00:50:38;;;;;;;11.00;3.08;;;;;;;6.47;97.98;101764.06;6120534;19;20010;-75
2023/04/07 00:52:43;;;;;;;12.45;3.50;;;;;;;6.44;98.12;101760.63;6113716;19;20035;-75
2023/04/07 00:54:55;;;;;;;11.70;3.05;;;;;;;6.38;98.46;101769.38;6117934;19;20259;-74
2023/04/07 00:57:03;;;;;;;9.95;3.45;;;;;;;6.31;98.20;101765.09;6106257;19;20011;-74
2023/04/07 00:59:10;;;;;;;9.25;3.13;;;;;;;6.27;98.23;101760.78;6096387;19;20013;-75
2023/04/07 01:01:20;;;;;;;13.32;3.50;;;;;;;6.23;98.32;101764.28;6099890;19;20007;-75
2023/04/07 01:03:32;;;;;;;14.90;4.20;;;;;;;6.18;98.21;101763.44;6100799;19;20192;-75
2023/04/07 01:05:44;;;;;;;9.80;3.25;;;;;;;6.09;98.21;101756.56;6098183;19;20440;-75
2023/04/07 01:07:55;;;;;;;;;;;;;;;6.05;98.42;101755.69;6101457;19;20015;-75
2023/04/07 01:10:05;;;;;;;16.55;4.32;;;;;;;6.02;98.36;101760.06;6100893;19;19911;-74
2023/04/07 01:12:25;;;;;;;14.38;3.45;;;;;;;5.96;98.48;101761.00;6099195;19;20570;-75
2023/04/07 01:14:37;;;;;;;10.98;2.90;;;;;;;5.89;98.20;101756.66;6100577;19;20022;-75
2023/04/07 01:16:47;;;;;;;10.88;3.28;;;;;;;5.87;98.46;101771.44;6099643;19;20042;-75
2023/04/07 01:18:56;;;;;;;10.35;3.20;;;;;;;5.84;98.69;101771.47;6099857;19;20481;-75
2023/04/07 01:21:06;;;;;;;8.13;3.20;;;;;;;5.82;99.05;101767.97;6096013;19;20024;-75
2023/04/07 01:23:17;;;;;;;8.45;3.13;;;;;;;5.77;98.67;101765.44;6101212;19;20007;-75
2023/04/07 01:25:59;;;;;;;11.20;3.63;;;;;;;5.79;98.88;101766.25;6101579;19;20383;-75
2023/04/07 01:28:24;;;;;;;12.02;3.70;;;;;;;5.76;99.01;101770.63;6104231;19;20410;-74
2023/04/07 01:30:34;;;;;;;11.40;3.47;;;;;;;5.72;98.92;101765.44;6104806;19;20846;-75
2023/04/07 01:32:43;;;;;;;9.70;3.28;;;;;;;5.74;99.37;101770.66;6105175;19;20474;-75
2023/04/07 01:34:50;;;;;;;13.45;3.20;;;;;;;5.75;98.94;101774.13;6105850;19;20070;-74
2023/04/07 01:36:56;;;;;;;10.48;4.00;;;;;;;5.77;99.34;101775.88;6104027;19;20003;-74
2023/04/07 01:39:01;;;;;;;10.20;3.80;;;;;;;5.77;99.19;101780.22;6104078;19;20015;-74
2023/04/07 01:41:07;;;;;;;12.05;4.00;;;;;;;5.85;99.43;101773.22;6104907;19;20006;-74
2023/04/07 01:43:14;;;;;;;11.38;3.67;;;;;;;5.85;99.16;101773.22;6102467;19;20006;-75
2023/04/07 01:45:20;;;;;;;10.98;3.58;;;;;;;5.86;99.57;101772.31;6103891;19;20007;-74
2023/04/07 01:47:29;;;;;;;11.48;4.10;;;;;;;5.88;99.63;101778.41;6104996;19;20018;-74
2023/04/07 01:49:37;;;;;;;11.88;3.42;;;;;;;5.83;99.54;101769.75;6104203;19;20012;-74
2023/04/07 01:51:43;;;;;;;12.98;4.07;;;;;;;5.91;99.94;101773.16;6104585;19;20021;-74
2023/04/07 01:53:50;;;;;;;15.45;4.25;;;;;;;5.89;99.29;101780.13;6102270;19;20051;-75
2023/04/07 01:55:56;;;;;;;10.93;3.90;;;;;;;5.88;99.38;101775.78;6105235;19;20021;-74
2023/04/07 01:58:06;;;;;;;13.63;4.80;;;;;;;5.86;99.44;101774.94;6105351;19;20591;-75
2023/04/07 02:00:14;;;;;;;11.23;3.55;;;;;;;5.83;99.39;101775.81;6104745;19;20260;-73
2023/04/07 02:02:22;;;;;;;11.93;3.70;;;;;;;5.84;99.38;101777.53;6103307;19;20379;-73
2023/04/07 02:04:36;;;;;;;9.23;3.60;;;;;;;5.83;99.74;101772.34;6102789;19;20432;-74
2023/04/07 02:06:47;;;;;;;9.80;3.88;;;;;;;5.88;100.00;101773.19;6104128;19;20003;-74
2023/04/07 02:08:59;;;;;;;14.20;3.92;;;;;;;5.89;99.63;101780.13;6104685;19;20010;-74
2023/04/07 02:11:06;;;;;;;12.07;4.13;;;;;;;5.89;99.78;101774.91;6102048;19;20002;-74
2023/04/07 02:13:17;;;;;;;12.95;4.65;;;;;;;5.91;100.00;101771.41;6100888;19;20014;-74
2023/04/07 02:15:23;;;;;;;15.35;4.38;;;;;;;5.94;99.76;101775.78;6102009;19;20010;-74
2023/04/07 02:17:30;;;;;;;16.48;4.10;;;;;;;5.94;99.97;101767.94;6098271;19;20021;-74
2023/04/07 02:19:39;;;;;;;13.95;4.25;;;;;;;5.89;99.91;101772.28;6098939;19;20562;-74
2023/04/07 02:21:45;;;;;;;15.60;4.32;;;;;;;5.93;99.68;101776.63;6100134;19;20012;-73
2023/04/07 02:23:50;;;;;;;11.23;4.15;;;;;;;5.95;100.00;101772.31;6102011;19;20006;-74
2023/04/07 02:25:58;;;;;;;12.82;3.85;;;;;;;5.97;100.00;101773.16;6099175;19;20013;-75
2023/04/07 02:28:03;;;;;;;10.77;4.30;;;;;;;5.91;99.69;101784.47;6100053;19;20014;-72
2023/04/07 02:30:09;;;;;;;13.82;4.05;;;;;;;5.91;100.00;101783.59;6100308;19;20492;-73
2023/04/07 02:32:20;;;;;;;8.32;3.70;;;;;;;5.91;100.00;101778.38;6102288;19;20003;-75
2023/04/07 02:34:25;;;;;;;11.18;5.05;;;;;;;5.86;99.64;101781.00;6098494;19;20483;-73
2023/04/07 02:36:33;;;;;;;12.55;4.43;;;;;;;5.84;99.77;101785.34;6097605;19;20445;-73
2023/04/07 02:38:42;;;;;;;13.38;4.40;;;;;;;5.82;99.55;101778.41;6098457;19;20031;-73
2023/04/07 02:40:49;;;;;;;18.75;5.68;;;;;;;5.80;99.80;101775.84;6099863;19;20023;-74
2023/04/07 02:42:54;;;;;;;18.45;6.25;;;;;;;5.77;99.67;101777.59;6104499;19;20010;-74
2023/04/07 02:44:57;;;;;;;12.82;5.57;;;;;;;5.79;99.76;101783.66;6102032;19;20039;-73
2023/04/07 02:47:04;;;;;;;15.23;6.05;;;;;;;5.79;99.90;101783.66;6104252;19;20379;-73
2023/04/07 02:49:09;;;;;;;14.60;6.20;;;;;;;5.79;99.71;101783.66;6104429;19;20562;-73
2023/04/07 02:51:14;;;;;;;15.32;5.93;;;;;;;5.79;99.66;101775.84;6100145;19;20329;-73
2023/04/07 02:53:21;;;;;;;14.27;6.20;;;;;;;5.79;99.76;101775.84;6099284;19;20024;-73
2023/04/07 02:55:31;;;;;;;15.73;6.45;;;;;;;5.83;99.74;101780.16;6103010;19;20015;-70
2023/04/07 02:57:36;;;;;;;18.65;7.63;;;;;;;5.83;99.77;101781.03;6104368;19;20010;-70
2023/04/07 02:59:41;;;;;;;14.00;5.97;;;;;;;5.83;99.75;101775.81;6098641;19;20081;-69
2023/04/07 03:01:49;;;;;;;20.13;5.88;;;;;;;5.85;100.00;101773.22;6101895;19;20104;-69
2023/04/07 03:03:55;;;;;;;13.50;5.50;;;;;;;5.86;100.00;101774.94;6107181;19;20065;-70
2023/04/07 03:06:00;;;;;;;12.95;5.55;;;;;;;5.88;99.73;101781.00;6109287;19;20368;-71
2023/04/07 03:08:16;;;;;;;17.75;6.97;;;;;;;5.90;100.00;101787.97;6100381;19;20014;-69
2023/04/07 03:10:28;;;;;;;14.32;6.05;;;;;;;5.93;100.00;101787.97;6099439;19;20378;-70
2023/04/07 03:12:37;;;;;;;10.90;5.13;;;;;;;5.98;100.00;101782.72;6099393;19;20018;-70
2023/04/07 03:14:43;;;;;;;10.40;4.65;;;;;;;6.00;100.00;101787.91;6097589;19;20586;-70
2023/04/07 03:16:48;;;;;;;18.15;6.07;;;;;;;6.03;100.00;101780.06;6104449;19;20013;-69
2023/04/07 03:18:53;;;;;;;10.88;5.10;;;;;;;6.07;100.00;101779.19;6101469;19;20022;-69
2023/04/07 03:20:58;;;;;;;15.98;6.07;;;;;;;6.13;100.00;101785.25;6099119;19;20063;-69
2023/04/07 03:23:05;;;;;;;16.05;5.70;;;;;;;6.15;100.00;101788.69;6104422;19;20058;-69
2023/04/07 03:25:11;;;;;;;40.03;14.30;;;;;;;6.19;100.00;101786.03;6103770;19;20115;-69
2023/04/07 03:27:20;;;;;;;18.65;6.60;;;;;;;6.24;100.00;101787.78;6100995;19;20018;-70
2023/04/07 03:29:25;;;;;;;13.15;5.70;;;;;;;6.28;100.00;101788.59;6104579;19;20579;-69
2023/04/07 03:31:30;;;;;;;18.38;6.90;;;;;;;6.32;100.00;101785.09;6102895;19;20053;-70
2023/04/07 03:33:35;;;;;;;18.30;5.22;;;;;;;6.58;100.00;101787.47;6103848;19;20029;-69
2023/04/07 03:35:40;;;;;;;14.88;4.38;;;;;;;6.69;100.00;101782.16;6102240;19;20051;-70
2023/04/07 03:37:46;;;;;;;13.13;4.50;;;;;;;6.78;99.55;101785.56;6100701;19;20452;-69
2023/04/07 03:39:50;;;;;;;14.77;4.82;;;;;;;6.86;99.27;101789.84;6101927;19;20078;-70
2023/04/07 03:42:03;;;;;;;14.32;5.32;;;;;;;6.92;99.19;101780.19;6103152;19;20415;-69
2023/04/07 03:44:13;;;;;;;19.00;4.75;;;;;;;6.94;99.04;101783.66;6103446;19;20010;-70
2023/04/07 03:46:18;;;;;;;15.27;5.40;;;;;;;6.99;98.92;101789.69;6103492;19;20800;-70
2023/04/07 03:48:27;;;;;;;16.85;4.72;;;;;;;7.04;98.30;101781.81;6084955;19;20038;-69
2023/04/07 03:50:35;;;;;;;14.93;4.78;;;;;;;7.04;98.19;101784.44;6103945;19;20042;-70
2023/04/07 03:52:40;;;;;;;14.23;4.93;;;;;;;7.06;97.84;101789.63;6106297;19;20006;-70
2023/04/07 03:54:45;;;;;;;12.75;4.18;;;;;;;7.11;96.82;101787.81;6106800;19;20011;-69
2023/04/07 03:56:50;;;;;;;10.20;4.10;;;;;;;7.14;96.48;101793.03;6108092;19;20010;-69
2023/04/07 03:58:56;;;;;;;9.57;3.67;;;;;;;7.16;95.69;101791.25;6111009;19;20003;-69
2023/04/07 04:01:04;;;;;;;7.28;3.20;;;;;;;7.19;94.72;101789.50;6106256;19;20017;-69
2023/04/07 04:03:10;;;;;;;8.55;3.17;;;;;;;7.22;94.55;101791.22;6102191;19;20554;-69
2023/04/07 04:05:15;;;;;;;10.52;3.40;;;;;;;7.17;94.95;101793.88;6102493;19;20046;-70
2023/04/07 04:07:20;;;;;;;8.85;2.70;;;;;;;7.18;94.87;101794.72;6102088;19;20021;-69
2023/04/07 04:09:25;;;;;;;7.93;3.08;;;;;;;7.18;94.72;101794.72;6097737;19;20002;-70
2023/04/07 04:11:30;;;;;;;7.57;3.17;;;;;;;7.17;95.18;101803.47;6095376;19;20487;-70
2023/04/07 04:13:35;;;;;;;9.25;3.33;;;;;;;7.19;94.95;101806.94;6095916;19;20507;-70
2023/04/07 04:15:40;;;;;;;10.98;3.42;;;;;;;7.24;94.69;101794.66;6095915;19;20021;-69
2023/04/07 04:17:49;;;;;;;10.07;2.90;;;;;;;7.21;95.15;101808.66;6095113;19;20031;-69
2023/04/07 04:19:54;;;;;;;7.30;3.22;;;;;;;7.20;95.14;101806.91;6094302;19;20106;-69
2023/04/07 04:21:59;;;;;;;8.18;3.38;;;;;;;7.19;95.49;101806.94;6091060;19;20010;-69
2023/04/07 04:24:07;;;;;;;11.23;3.63;;;;;;;7.17;95.59;101803.47;6090443;19;20354;-69
2023/04/07 04:26:12;;;;;;;9.55;4.00;;;;;;;7.16;95.59;101806.94;6097521;19;20480;-69
2023/04/07 04:28:17;;;;;;;10.82;4.13;;;;;;;7.14;96.08;101806.13;6098069;19;20039;-70
2023/04/07 04:30:22;;;;;;;11.30;3.35;;;;;;;7.17;95.88;101808.69;6098106;19;20074;-69
2023/04/07 04:32:27;;;;;;;9.02;3.47;;;;;;;7.18;95.66;101808.66;6100284;19;20417;-69
2023/04/07 04:34:35;;;;;;;9.02;3.45;;;;;;;7.20;95.43;101813.88;6100625;19;20089;-69
2023/04/07 04:36:42;;;;;;;11.77;3.67;;;;;;;7.20;95.60;101819.13;6100926;19;20014;-69
2023/04/07 04:38:51;;;;;;;9.75;3.40;;;;;;;7.19;95.57;101812.16;6099290;19;20007;-70
2023/04/07 04:40:58;;;;;;;13.57;4.18;;;;;;;7.18;95.61;101818.25;6100510;19;20031;-70
2023/04/07 04:43:05;;;;;;;11.05;3.55;;;;;;;7.20;95.24;101819.13;6096582;19;20014;-70
2023/04/07 04:45:12;;;;;;;12.05;3.72;;;;;;;7.22;95.42;101822.59;6098114;19;20078;-70
2023/04/07 04:47:18;;;;;;;10.73;3.80;;;;;;;7.19;95.39;101817.38;6097124;19;20547;-70
2023/04/07 04:49:23;;;;;;;13.95;3.63;;;;;;;7.19;95.29;101822.63;6097356;19;20006;-74
2023/04/07 04:51:31;;;;;;;10.40;3.72;;;;;;;7.22;95.33;101826.06;6101121;19;20367;-75
2023/04/07 04:53:36;;;;;;;16.83;4.82;;;;;;;7.22;95.29;101819.97;6096754;19;20519;-74
2023/04/07 04:55:45;;;;;;;8.63;3.40;;;;;;;7.24;95.10;101831.25;6101288;19;20002;-74
2023/04/07 04:57:50;;;;;;;12.98;4.43;;;;;;;7.21;95.41;101826.94;6084965;19;21055;-74
2023/04/07 04:59:55;;;;;;;11.32;3.72;;;;;;;7.24;95.35;101836.47;6106513;19;20003;-74
2023/04/07 05:02:00;;;;;;;15.57;3.70;;;;;;;7.25;95.41;101836.47;6107038;19;20006;-74
2023/04/07 05:04:05;;;;;;;12.65;4.20;;;;;;;7.23;94.95;101832.13;6105116;19;20006;-73
2023/04/07 05:06:10;;;;;;;13.55;4.30;;;;;;;7.21;95.48;101824.34;6104958;19;20038;-73
2023/04/07 05:08:18;;;;;;;9.85;3.25;;;;;;;7.23;94.61;101826.91;6104493;19;20003;-74
2023/04/07 05:10:23;;;;;;;6.78;2.80;;;;;;;7.24;94.76;101826.91;6106700;19;20035;-73
2023/04/07 05:12:28;;;;;;;8.50;2.88;;;;;;;7.23;94.77;101819.06;6105708;19;20015;-74
2023/04/07 05:14:32;;;;;;;11.20;3.28;;;;;;;7.22;95.21;101823.44;6101843;19;20013;-74
2023/04/07 05:16:37;;;;;;;8.90;3.00;;;;;;;7.22;95.01;101827.81;6104501;19;20425;-74
2023/04/07 05:18:42;;;;;;;8.75;2.60;;;;;;;7.24;95.01;101829.53;6105193;19;20099;-73
2023/04/07 05:20:50;;;;;;;8.07;2.65;;;;;;;7.22;95.01;101833.91;6104343;19;20010;-74
2023/04/07 05:22:55;;;;;;;9.55;2.83;;;;;;;7.22;94.93;101838.25;6097522;19;20027;-74
2023/04/07 05:25:06;;;;;;;7.80;2.78;;;;;;;7.22;95.23;101839.13;6102384;19;20035;-72
2023/04/07 05:27:11;;;;;;;12.57;3.30;;;;;;;7.22;95.08;101843.50;6100937;19;20724;-74
2023/04/07 05:29:15;;;;;;;11.00;3.00;;;;;;;7.22;95.17;101849.59;6086427;19;20009;-74
2023/04/07 05:31:20;;;;;;;10.85;3.35;;;;;;;7.24;94.27;101841.69;6103246;19;20057;-74
2023/04/07 05:33:25;;;;;;;4.45;2.55;;;;;;;7.28;94.05;101843.41;6100355;19;19999;-73
2023/04/07 05:35:31;;;;;;;5.63;2.90;;;;;;;7.28;94.14;101848.66;6100400;19;20039;-73
2023/04/07 05:37:35;;;;;;;9.35;3.65;;;;;;;7.27;93.39;101844.31;6101168;19;20007;-73
2023/04/07 05:39:41;;;;;;;15.82;3.67;;;;;;;7.27;93.81;101846.94;6104511;19;20007;-73
2023/04/07 05:41:49;;;;;;;9.80;3.25;;;;;;;7.30;93.77;101848.66;6102842;19;20002;-74
2023/04/07 05:43:53;;;;;;;11.95;3.40;;;;;;;7.30;93.16;101841.66;6100834;19;20014;-73
2023/04/07 05:45:59;;;;;;;11.82;3.65;;;;;;;7.33;92.50;101852.09;6100745;19;20019;-74
2023/04/07 05:48:06;;;;;;;11.70;3.70;;;;;;;7.33;93.18;101852.09;6101130;19;20084;-74
2023/04/07 05:50:13;;;;;;;11.10;3.88;;;;;;;7.37;92.66;101848.56;6102723;19;20350;-74
2023/04/07 05:52:18;;;;;;;11.70;4.22;;;;;;;7.38;92.50;101852.03;6097096;19;20538;-75
2023/04/07 05:54:26;;;;;;;15.07;4.72;;;;;;;7.37;92.68;101853.78;6101064;19;20011;-69
2023/04/07 05:56:31;;;;;;;11.50;4.45;;;;;;;7.37;92.48;101856.41;6081795;19;20010;-69
2023/04/07 05:58:41;;;;;;;12.73;4.55;;;;;;;7.37;92.90;101859.03;6103987;19;20002;-71
2023/04/07 06:00:50;;;;;;;9.30;3.35;;;;;;;7.40;92.92;101864.22;6101091;19;20480;-69
2023/04/07 06:02:56;;;;;;;8.85;3.42;;;;;;;7.41;92.64;101865.94;6096693;19;20035;-70
2023/04/07 06:05:01;;;;;;;10.90;4.20;;;;;;;7.42;92.73;101872.88;6098351;19;20776;-70
2023/04/07 06:07:06;;;;;;;8.70;3.40;;;;;;;7.44;92.98;101871.13;6103053;19;20528;-69
2023/04/07 06:09:11;;;;;;;8.80;4.07;;;;;;;7.50;92.71;101875.41;6098551;19;20079;-70
2023/04/07 06:11:26;;;;;;;11.98;3.75;;;;;;;7.52;92.62;101881.50;6099312;19;20007;-69
2023/04/07 06:13:30;;;;;;;11.27;3.55;;;;;;;7.56;91.82;101880.59;6101492;19;20034;-69
2023/04/07 06:15:38;;;;;;;11.88;3.40;;;;;;;7.58;92.32;101877.94;6098983;19;20119;-69
2023/04/07 06:17:44;;;;;;;6.93;2.78;;;;;;;7.55;91.65;101881.47;6104114;19;20408;-69
2023/04/07 06:19:51;;;;;;;7.80;3.05;;;;;;;7.57;91.67;101876.22;6101548;19;20502;-70
2023/04/07 06:21:56;;;;;;;9.30;4.00;;;;;;;7.58;91.74;101878.84;6103197;19;19998;-69
2023/04/07 06:24:03;;;;;;;12.27;4.82;;;;;;;7.58;91.77;101880.56;6102561;19;20007;-70
2023/04/07 06:26:12;;;;;;;8.23;2.88;;;;;;;7.62;91.91;101877.03;6102045;19;20126;-70
2023/04/07 06:28:17;;;;;;;11.57;3.30;;;;;;;7.60;91.80;101877.06;6105030;19;20018;-69
2023/04/07 06:30:22;;;;;;;11.52;3.78;;;;;;;7.65;92.04;101879.63;6106930;19;20010;-70
2023/04/07 06:32:32;;;;;;;12.02;3.40;;;;;;;7.67;92.23;101886.56;6104809;19;20344;-70
2023/04/07 06:34:37;;;;;;;14.20;3.08;;;;;;;7.69;91.77;101890.03;6106143;19;20471;-69
2023/04/07 06:36:42;;;;;;;7.30;2.75;;;;;;;7.70;92.25;101883.91;6106058;19;20130;-69
2023/04/07 06:38:49;;;;;;;12.23;3.33;;;;;;;7.71;91.82;101887.38;6107134;19;20038;-69
2023/04/07 06:40:55;;;;;;;16.02;3.05;;;;;;;7.70;91.33;101886.53;6101722;19;20006;-69
2023/04/07 06:43:00;;;;;;;11.80;3.78;;;;;;;7.69;90.86;101887.44;6104997;19;20081;-68
2023/04/07 06:45:05;;;;;;;16.27;3.63;;;;;;;7.73;90.98;101892.63;6102025;19;20011;-69
2023/04/07 06:47:10;;;;;;;10.93;2.85;;;;;;;7.76;89.96;101887.34;6104162;19;20038;-69
2023/04/07 06:49:18;;;;;;;11.98;2.88;;;;;;;7.80;90.82;101895.16;6109127;19;20006;-68
2023/04/07 06:51:23;;;;;;;11.75;3.03;;;;;;;7.86;90.95;101896.81;6109717;19;20105;-69
2023/04/07 06:53:28;;;;;;;10.52;3.20;;;;;;;7.79;90.48;101893.38;6104541;19;20082;-68
2023/04/07 06:55:33;;;;;;;11.32;2.58;;;;;;;7.79;90.65;101897.75;6108660;19;21378;-68
2023/04/07 06:57:38;;;;;;;9.90;2.60;;;;;;;7.76;90.20;101896.06;6110690;19;20026;-68
2023/04/07 06:59:43;;;;;;;8.27;3.25;;;;;;;7.79;89.88;101906.47;6113727;19;20108;-70
2023/04/07 07:01:48;;;;;;;9.27;2.90;;;;;;;7.75;89.16;101903.94;6110138;19;20129;-68
2023/04/07 07:03:54;;;;;;;11.82;2.92;;;;;;;7.76;88.77;101919.59;6108748;19;20016;-69
2023/04/07 07:06:02;;;;;;;10.35;2.60;;;;;;;7.75;88.25;101914.41;6112471;19;20006;-69
2023/04/07 07:08:09;;;;;;;5.72;2.53;;;;;;;7.76;88.28;101923.97;6113376;19;20030;-69
2023/04/07 07:10:17;;;;;;;9.98;2.72;;;;;;;7.71;87.00;101926.63;6113361;19;20642;-69
2023/04/07 07:12:22;;;;;;;8.50;2.60;;;;;;;7.66;86.23;101923.19;6108711;19;20441;-69
2023/04/07 07:14:27;;;;;;;9.32;2.75;;;;;;;7.65;86.63;101924.94;6101345;19;20062;-71
2023/04/07 07:16:36;;;;;;;8.95;2.65;;;;;;;7.64;87.69;101923.22;6101864;19;20172;-70
2023/04/07 07:18:42;;;;;;;10.35;2.80;;;;;;;7.67;86.86;101925.81;6091445;19;20015;-69
2023/04/07 07:20:50;;;;;;;5.53;2.08;;;;;;;7.66;86.98;101934.56;6094885;19;20007;-70
2023/04/07 07:22:58;;;;;;;12.13;2.80;;;;;;;7.70;87.99;101930.16;6092616;19;20010;-70
2023/04/07 07:25:05;;;;;;;11.80;2.70;;;;;;;7.76;88.07;101942.28;6098205;19;20006;-70
2023/04/07 07:27:11;;;;;;;10.35;2.85;;;;;;;7.77;87.29;101941.41;6099736;19;20102;-70
2023/04/07 07:29:16;;;;;;;12.00;2.70;;;;;;;7.73;87.01;101939.72;6100046;19;20096;-69
2023/04/07 07:31:22;;;;;;;7.13;2.50;;;;;;;7.74;87.49;101944.94;6087876;19;20014;-68
2023/04/07 07:33:28;;;;;;;9.00;2.38;;;;;;;7.74;87.66;101942.31;6094987;19;20006;-70
2023/04/07 07:35:33;;;;;;;11.70;3.00;;;;;;;7.74;88.38;101951.91;6094890;19;20089;-69
2023/04/07 07:37:38;;;;;;;11.57;3.50;;;;;;;7.70;87.95;101951.06;6094439;19;20590;-69
2023/04/07 07:39:48;;;;;;;9.85;3.42;;;;;;;7.80;88.71;101954.47;6099349;19;20011;-70
2023/04/07 07:41:54;;;;;;;8.85;3.22;;;;;;;7.86;88.54;101957.88;6096010;19;20010;-69
2023/04/07 07:43:59;;;;;;;11.05;3.55;;;;;;;8.01;88.69;101958.59;6092594;19;20068;-70
2023/04/07 07:46:04;;;;;;;17.00;3.55;;;;;;;8.00;86.32;101962.06;6085532;19;20386;-69
2023/04/07 07:48:09;;;;;;;14.63;3.38;;;;;;;8.05;86.64;101958.50;6091431;19;20025;-69
2023/04/07 07:50:14;;;;;;;8.05;3.13;;;;;;;8.08;85.12;101957.59;6095625;19;20043;-69
2023/04/07 07:52:20;;;;;;;7.57;2.67;;;;;;;8.08;84.94;101962.84;6083174;19;20050;-69
2023/04/07 07:54:24;;;;;;;11.73;3.97;;;;;;;8.05;84.18;101968.13;6091517;19;20356;-70
2023/04/07 07:56:32;;;;;;;9.75;3.53;;;;;;;8.08;84.36;101974.22;6095330;19;20034;-69
2023/04/07 07:58:37;;;;;;;7.70;3.05;;;;;;;8.09;83.81;101969.84;6093697;19;20793;-69
2023/04/07 08:00:42;;;;;;;9.68;3.80;;;;;;;8.08;84.40;101968.97;6097682;19;20007;-69
2023/04/07 08:02:49;;;;;;;10.52;3.35;;;;;;;8.11;84.44;101963.69;6094207;19;22710;-68
2023/04/07 08:04:54;;;;;;;10.02;2.83;;;;;;;8.11;84.36;101968.94;6089660;19;20076;-69
2023/04/07 08:06:59;;;;;;;7.63;2.92;;;;;;;8.08;84.73;101974.22;6094569;19;20073;-69
2023/04/07 08:09:05;;;;;;;11.13;3.72;;;;;;;8.16;85.20;101970.59;6097016;19;20012;-69
2023/04/07 08:11:10;;;;;;;7.20;2.75;;;;;;;8.11;84.26;101976.78;6093889;19;20105;-73
2023/04/07 08:13:20;;;;;;;7.90;2.92;;;;;;;8.11;84.23;101975.94;6098511;19;20029;-74
2023/04/07 08:15:25;;;;;;;12.07;3.20;;;;;;;8.13;84.14;101977.59;6102015;19;20010;-74
2023/04/07 08:17:30;;;;;;;12.85;3.05;;;;;;;8.20;84.05;101981.03;6100016;19;20386;-74
2023/04/07 08:19:35;;;;;;;8.80;2.78;;;;;;;8.30;85.04;101982.66;6102436;19;20010;-73
2023/04/07 08:21:40;;;;;;;7.88;2.38;;;;;;;8.28;83.83;101979.19;6100132;19;20007;-74
2023/04/07 08:23:45;;;;;;;13.35;3.20;;;;;;;8.27;84.79;101987.06;6097838;19;20010;-73
2023/04/07 08:25:50;;;;;;;13.25;3.13;;;;;;;8.29;85.40;101993.13;6093792;19;20011;-73
2023/04/07 08:27:55;;;;;;;6.07;3.05;;;;;;;8.19;84.68;101995.03;6095732;19;20113;-73
2023/04/07 08:30:05;;;;;;;15.07;4.32;;;;;;;8.21;85.90;101992.38;6086395;19;20598;-73
2023/04/07 08:32:13;;;;;;;13.98;4.05;;;;;;;8.17;86.57;101990.69;6095608;19;20007;-73
2023/04/07 08:34:19;;;;;;;9.55;3.05;;;;;;;8.19;86.19;101994.13;6097885;19;20425;-73
2023/04/07 08:36:25;;;;;;;9.75;3.40;;;;;;;8.21;85.94;101997.59;6095268;19;20003;-74
2023/04/07 08:38:30;;;;;;;9.25;3.15;;;;;;;8.19;86.02;102001.97;6093593;19;20030;-75
2023/04/07 08:40:35;;;;;;;12.70;2.97;;;;;;;8.05;85.57;102010.88;6094868;19;20006;-74
2023/04/07 08:42:47;;;;;;;10.85;2.90;;;;;;;8.07;85.70;102003.00;6092600;19;20440;-73
2023/04/07 08:44:53;;;;;;;10.98;2.95;;;;;;;8.04;86.23;102006.53;6092834;19;20003;-73
2023/04/07 08:47:06;;;;;;;16.17;2.80;;;;;;;8.04;86.32;102006.53;6089625;19;20423;-74
2023/04/07 08:49:13;;;;;;;11.02;2.67;;;;;;;8.06;85.58;102009.16;6094743;19;21363;-74
2023/04/07 08:51:28;;;;;;;8.75;2.90;;;;;;;8.09;85.69;102012.59;6096046;19;20018;-74
2023/04/07 08:53:39;;;;;;;10.25;2.70;;;;;;;8.16;85.83;102015.13;6086692;19;21115;-74
2023/04/07 08:55:44;;;;;;;6.47;2.90;;;;;;;8.13;85.38;102009.03;6088911;19;20467;-74
2023/04/07 08:57:50;;;;;;;11.63;3.03;;;;;;;8.24;86.13;102011.53;6092906;19;20567;-74
2023/04/07 08:59:56;;;;;;;9.52;3.78;;;;;;;8.24;86.37;102015.91;6088269;19;20526;-73
2023/04/07 09:02:06;;;;;;;7.50;2.95;;;;;;;8.26;86.27;102019.38;6085241;19;20456;-73
2023/04/07 09:04:12;;;;;;;6.22;2.83;;;;;;;8.08;84.85;102023.06;6087304;19;20102;-74
2023/04/07 09:06:20;;;;;;;7.35;2.50;;;;;;;8.19;84.06;102020.31;6097393;19;20014;-74
2023/04/07 09:08:27;;;;;;;10.18;2.67;;;;;;;8.31;84.18;102026.28;6099735;19;20006;-73
2023/04/07 09:10:32;;;;;;;6.90;2.65;;;;;;;8.42;83.45;102025.31;6100956;19;20040;-73
2023/04/07 09:12:37;;;;;;;7.68;2.88;;;;;;;8.55;83.99;102024.28;6093396;19;20413;-74
2023/04/07 09:14:42;;;;;;;13.93;2.97;;;;;;;8.79;83.06;102034.44;6094364;19;20023;-73
2023/04/07 09:16:48;;;;;;;13.07;3.65;;;;;;;8.94;82.30;102022.00;6100283;19;20018;-74
2023/04/07 09:18:55;;;;;;;13.40;3.10;;;;;;;8.98;82.24;102021.06;6098162;19;20003;-73
2023/04/07 09:21:02;;;;;;;7.88;2.83;;;;;;;8.89;81.41;102016.81;6101935;19;20006;-74
2023/04/07 09:23:10;;;;;;;13.90;2.90;;;;;;;8.95;81.93;102021.97;6095302;19;20002;-74
2023/04/07 09:25:17;;;;;;;8.75;2.47;;;;;;;8.80;81.54;102024.81;6101677;19;20098;-74
2023/04/07 09:27:23;;;;;;;5.15;2.40;;;;;;;8.83;81.62;102022.16;6090036;19;20059;-73
2023/04/07 09:29:28;;;;;;;6.40;2.60;;;;;;;8.68;80.83;102031.06;6095071;19;20011;-75
2023/04/07 09:31:47;;;;;;;8.13;3.00;;;;;;;8.53;81.04;102026.03;6094969;19;20050;-74
2023/04/07 09:33:54;;;;;;;10.70;3.38;;;;;;;8.51;81.33;102026.06;6097012;19;20019;-75
2023/04/07 09:36:01;;;;;;;14.88;2.92;;;;;;;8.59;81.91;102025.13;6095007;19;20007;-74
2023/04/07 09:38:07;;;;;;;8.77;2.85;;;;;;;8.59;81.62;102028.59;6093697;19;20407;-74
2023/04/07 09:40:13;;;;;;;15.07;2.85;;;;;;;8.48;81.28;102031.38;6095789;19;20086;-75
2023/04/07 09:42:21;;;;;;;15.30;2.95;;;;;;;8.69;81.45;102031.94;6095332;19;20002;-75
2023/04/07 09:44:27;;;;;;;7.20;3.08;;;;;;;8.74;81.11;102031.03;6103871;19;20006;-75
2023/04/07 09:46:32;;;;;;;10.40;3.22;;;;;;;8.75;80.18;102035.34;6104932;19;20006;-74
2023/04/07 09:48:38;;;;;;;8.80;3.45;;;;;;;8.73;80.37;102031.03;6089027;19;20044;-69
2023/04/07 09:50:48;;;;;;;9.85;2.83;;;;;;;8.83;80.91;102039.63;6078698;19;20007;-69